Time;durP1;ratioP1;P1;durP2;ratioP2;P2;SDS_P1;SDS_P2;PMS_P1;PMS_P2;Temp;Humidity;BMP_temperature;BMP_pressure;BME280_temperature;BME280_humidity;BME280_pressure;Samples;Min_cycle;Max_cycle;Signal;HPM_P1;HPM_P2
2023/09/03 00:00:13;;;;;;;8.40;7.60;;;;;;;;;;4414983;32;316813;-82
2023/09/03 00:02:44;;;;;;;10.90;8.00;;;;;;;;;;4397121;32;416084;-82
2023/09/03 00:05:12;;;;;;;9.35;8.45;;;;;;;;;;4413831;32;317935;-82
2023/09/03 00:07:39;;;;;;;8.27;7.50;;;;;;;;;;4395786;32;415990;-83
2023/09/03 00:10:07;;;;;;;9.52;7.72;;;;;;;;;;4413181;32;316734;-83
2023/09/03 00:12:36;;;;;;;8.32;7.45;;;;;;;;;;4403269;32;316620;-83
2023/09/03 00:15:05;;;;;;;12.27;8.25;;;;;;;;;;4412103;32;316673;-82
2023/09/03 00:17:32;;;;;;;9.80;8.80;;;;;;;;;;4397607;32;317842;-82
2023/09/03 00:20:02;;;;;;;11.93;7.15;;;;;;;;;;4414164;32;316774;-85
2023/09/03 00:22:30;;;;;;;8.82;7.60;;;;;;;;;;4402094;32;317873;-83
2023/09/03 00:24:57;;;;;;;8.98;7.72;;;;;;;;;;4412903;32;316724;-81
2023/09/03 00:27:29;;;;;;;8.68;7.72;;;;;;;;;;4403194;32;316568;-84
2023/09/03 00:29:58;;;;;;;8.32;7.45;;;;;;;;;;4411010;32;316475;-81
2023/09/03 00:32:25;;;;;;;7.50;6.80;;;;;;;;;;4403587;32;316725;-82
2023/09/03 00:34:53;;;;;;;8.30;7.45;;;;;;;;;;4412283;32;316790;-81
2023/09/03 00:37:21;;;;;;;8.10;7.10;;;;;;;;;;4401517;32;316701;-82
2023/09/03 00:39:48;;;;;;;10.32;8.05;;;;;;;;;;4409435;32;316794;-82
2023/09/03 00:42:16;;;;;;;11.15;6.87;;;;;;;;;;4388507;32;317796;-82
2023/09/03 00:44:43;;;;;;;9.35;7.97;;;;;;;;;;4407436;32;318087;-82
2023/09/03 00:47:13;;;;;;;10.45;7.72;;;;;;;;;;4411217;32;316765;-82
2023/09/03 00:49:43;;;;;;;8.55;7.43;;;;;;;;;;4394498;32;388138;-82
2023/09/03 00:52:12;;;;;;;8.20;7.15;;;;;;;;;;4411835;32;316758;-81
2023/09/03 00:54:40;;;;;;;8.93;8.02;;;;;;;;;;4400124;32;415654;-82
2023/09/03 00:57:07;;;;;;;11.35;7.22;;;;;;;;;;4411356;32;348308;-81
2023/09/03 00:59:37;;;;;;;9.75;8.20;;;;;;;;;;4402457;32;317534;-81
2023/09/03 01:02:07;;;;;;;7.28;6.57;;;;;;;;;;4413203;32;316834;-81
2023/09/03 01:04:36;;;;;;;8.20;7.40;;;;;;;;;;4399317;32;316921;-82
2023/09/03 01:07:04;;;;;;;8.38;7.30;;;;;;;;;;4410618;32;316655;-82
2023/09/03 01:09:31;;;;;;;11.43;8.07;;;;;;;;;;4398445;32;316688;-82
2023/09/03 01:12:09;;;;;;;12.55;8.10;;;;;;;;;;4413399;32;317743;-86
2023/09/03 01:14:42;;;;;;;8.82;7.45;;;;;;;;;;4403757;32;317660;-82
2023/09/03 01:17:14;;;;;;;12.32;7.85;;;;;;;;;;4414100;32;317311;-82
2023/09/03 01:20:05;;;;;;;8.60;7.70;;;;;;;;;;4394030;32;416394;-82
2023/09/03 01:22:55;;;;;;;9.63;8.43;;;;;;;;;;4401532;32;316613;-81
2023/09/03 01:25:50;;;;;;;10.25;8.15;;;;;;;;;;4402298;32;316724;-83
2023/09/03 01:28:31;;;;;;;10.15;8.30;;;;;;;;;;4385890;32;317891;-82
2023/09/03 01:31:01;;;;;;;10.77;7.68;;;;;;;;;;4409764;32;317699;-81
2023/09/03 01:33:35;;;;;;;10.55;8.75;;;;;;;;;;4394415;32;317946;-84
2023/09/03 01:36:06;;;;;;;9.63;8.65;;;;;;;;;;4409895;32;342034;-81
2023/09/03 01:38:34;;;;;;;9.05;8.10;;;;;;;;;;4399815;32;316802;-81
2023/09/03 01:41:02;;;;;;;11.32;8.23;;;;;;;;;;4413582;32;316992;-82
2023/09/03 01:43:32;;;;;;;9.30;8.03;;;;;;;;;;4399821;32;317920;-85
2023/09/03 01:46:06;;;;;;;10.15;7.60;;;;;;;;;;4412382;32;344470;-82
2023/09/03 01:48:46;;;;;;;9.30;8.30;;;;;;;;;;4400839;32;317885;-82
2023/09/03 01:51:18;;;;;;;11.02;8.05;;;;;;;;;;4412430;32;316634;-81
2023/09/03 01:53:53;;;;;;;9.48;8.63;;;;;;;;;;4396784;32;418286;-82
2023/09/03 01:56:23;;;;;;;11.88;8.05;;;;;;;;;;4400585;32;345640;-81
2023/09/03 01:58:54;;;;;;;10.57;8.60;;;;;;;;;;4412892;32;318047;-82
2023/09/03 02:01:25;;;;;;;14.93;8.70;;;;;;;;;;4392673;32;340981;-82
2023/09/03 02:03:54;;;;;;;8.60;7.70;;;;;;;;;;4385037;32;317713;-81
2023/09/03 02:06:22;;;;;;;9.40;8.38;;;;;;;;;;4399537;32;316649;-81
2023/09/03 02:08:49;;;;;;;11.73;8.95;;;;;;;;;;4412665;32;316631;-81
2023/09/03 02:11:20;;;;;;;12.17;7.97;;;;;;;;;;4400231;32;353826;-85
2023/09/03 02:13:47;;;;;;;10.88;8.85;;;;;;;;;;4413291;32;317962;-83
2023/09/03 02:16:16;;;;;;;8.75;7.87;;;;;;;;;;4400986;32;317620;-83
2023/09/03 02:18:44;;;;;;;8.63;7.72;;;;;;;;;;4411911;32;316946;-83
2023/09/03 02:21:11;;;;;;;9.63;8.55;;;;;;;;;;4401021;32;316650;-83
2023/09/03 02:23:39;;;;;;;12.05;7.72;;;;;;;;;;4405739;32;316575;-86
2023/09/03 02:26:07;;;;;;;9.13;8.18;;;;;;;;;;4401217;32;317932;-88
2023/09/03 02:28:35;;;;;;;8.60;7.80;;;;;;;;;;4412601;32;317128;-82
2023/09/03 02:31:03;;;;;;;9.30;7.97;;;;;;;;;;4412205;32;316557;-83
2023/09/03 02:33:32;;;;;;;9.75;8.25;;;;;;;;;;4393482;32;416032;-82
2023/09/03 02:35:59;;;;;;;9.57;8.27;;;;;;;;;;4410839;32;316985;-82
2023/09/03 02:38:26;;;;;;;10.25;8.40;;;;;;;;;;4401356;32;317151;-82
2023/09/03 02:40:54;;;;;;;8.90;8.00;;;;;;;;;;4411529;32;317739;-82
2023/09/03 02:43:21;;;;;;;13.52;8.15;;;;;;;;;;4397963;32;316886;-83
2023/09/03 02:45:49;;;;;;;9.98;8.98;;;;;;;;;;4413363;32;317662;-82
2023/09/03 02:48:16;;;;;;;8.52;7.72;;;;;;;;;;4402517;32;316721;-84
2023/09/03 02:50:45;;;;;;;11.70;8.85;;;;;;;;;;4415279;32;316644;-81
2023/09/03 02:53:12;;;;;;;9.63;7.70;;;;;;;;;;4390444;32;317842;-82
2023/09/03 02:55:40;;;;;;;9.20;8.05;;;;;;;;;;4411706;32;316758;-83
2023/09/03 02:58:08;;;;;;;9.68;8.68;;;;;;;;;;4402523;32;316993;-83
2023/09/03 03:00:36;;;;;;;9.20;8.15;;;;;;;;;;4400329;32;316669;-82
2023/09/03 03:03:03;;;;;;;8.35;7.50;;;;;;;;;;4413570;32;317267;-82
2023/09/03 03:05:31;;;;;;;14.40;8.05;;;;;;;;;;4399023;32;416276;-86
2023/09/03 03:08:02;;;;;;;8.90;7.87;;;;;;;;;;4416522;32;317791;-92
2023/09/03 03:10:30;;;;;;;8.07;7.20;;;;;;;;;;4401094;32;415461;-83
2023/09/03 03:12:57;;;;;;;9.52;8.57;;;;;;;;;;4414425;32;316591;-83
2023/09/03 03:15:25;;;;;;;12.70;8.70;;;;;;;;;;4405235;32;316945;-83
2023/09/03 03:17:52;;;;;;;11.35;9.27;;;;;;;;;;4409665;32;317740;-82
2023/09/03 03:20:22;;;;;;;11.00;9.32;;;;;;;;;;4404767;32;317882;-83
2023/09/03 03:22:49;;;;;;;8.80;7.90;;;;;;;;;;4395001;32;317593;-83
2023/09/03 03:25:18;;;;;;;8.70;7.80;;;;;;;;;;4402416;32;316806;-83
2023/09/03 03:27:45;;;;;;;9.48;8.57;;;;;;;;;;4410908;32;316809;-82
2023/09/03 03:30:13;;;;;;;10.85;8.50;;;;;;;;;;4403905;32;317008;-83
2023/09/03 03:32:40;;;;;;;13.52;8.50;;;;;;;;;;4415184;32;317886;-84
2023/09/03 03:35:09;;;;;;;11.65;8.40;;;;;;;;;;4403356;32;317788;-83
2023/09/03 03:37:36;;;;;;;10.07;8.88;;;;;;;;;;4408125;32;317963;-82
2023/09/03 03:40:06;;;;;;;9.88;8.60;;;;;;;;;;4413217;32;317890;-83
2023/09/03 03:42:35;;;;;;;12.40;9.93;;;;;;;;;;4402317;32;416577;-82
2023/09/03 03:45:02;;;;;;;12.15;9.63;;;;;;;;;;4413995;32;318077;-82
2023/09/03 03:47:30;;;;;;;11.30;9.35;;;;;;;;;;4396196;32;387490;-82
2023/09/03 03:49:58;;;;;;;9.98;8.80;;;;;;;;;;4412983;32;317866;-82
2023/09/03 03:52:25;;;;;;;9.73;8.73;;;;;;;;;;4401929;32;316799;-82
2023/09/03 03:54:53;;;;;;;9.63;8.70;;;;;;;;;;4412739;32;316813;-85
2023/09/03 03:57:21;;;;;;;11.95;8.77;;;;;;;;;;4396642;32;316653;-83
2023/09/03 03:59:50;;;;;;;14.85;9.20;;;;;;;;;;4413853;32;317909;-83
2023/09/03 04:02:18;;;;;;;12.48;9.80;;;;;;;;;;4402523;32;317788;-82
2023/09/03 04:04:46;;;;;;;11.25;8.80;;;;;;;;;;4411309;32;317666;-82
2023/09/03 04:07:13;;;;;;;11.75;8.95;;;;;;;;;;4402782;32;318155;-83
2023/09/03 04:09:41;;;;;;;11.25;9.80;;;;;;;;;;4409533;32;317649;-83
2023/09/03 04:12:08;;;;;;;12.50;10.75;;;;;;;;;;4400843;32;317822;-83
2023/09/03 04:14:37;;;;;;;11.32;10.10;;;;;;;;;;4412954;32;318813;-82
2023/09/03 04:17:06;;;;;;;15.55;9.85;;;;;;;;;;4402257;32;318856;-85
2023/09/03 04:19:34;;;;;;;11.80;10.60;;;;;;;;;;4409468;32;317945;-82
2023/09/03 04:22:01;;;;;;;10.60;9.07;;;;;;;;;;4410887;32;318882;-82
2023/09/03 04:24:29;;;;;;;16.85;10.20;;;;;;;;;;4403635;32;317813;-84
2023/09/03 04:26:56;;;;;;;14.63;10.68;;;;;;;;;;4415097;32;318740;-82
2023/09/03 04:29:24;;;;;;;13.30;10.05;;;;;;;;;;4399580;32;319084;-82
2023/09/03 04:31:51;;;;;;;11.32;9.63;;;;;;;;;;4414718;32;318708;-82
2023/09/03 04:34:20;;;;;;;16.55;9.90;;;;;;;;;;4402877;32;317831;-83
2023/09/03 04:36:48;;;;;;;14.90;9.50;;;;;;;;;;4413931;32;317674;-84
2023/09/03 04:39:15;;;;;;;11.40;10.20;;;;;;;;;;4402189;32;317943;-82
2023/09/03 04:41:43;;;;;;;13.30;10.27;;;;;;;;;;4408909;32;317560;-83
2023/09/03 04:44:11;;;;;;;13.50;9.32;;;;;;;;;;4401181;32;344377;-92
2023/09/03 04:46:39;;;;;;;14.77;9.05;;;;;;;;;;4414033;32;317696;-83
2023/09/03 04:49:06;;;;;;;13.60;10.02;;;;;;;;;;4401394;32;317802;-83
2023/09/03 04:51:35;;;;;;;16.55;11.80;;;;;;;;;;4410606;32;318886;-83
2023/09/03 04:54:03;;;;;;;13.02;10.45;;;;;;;;;;4413768;32;319323;-88
2023/09/03 04:56:30;;;;;;;12.02;10.13;;;;;;;;;;4398815;32;417895;-89
2023/09/03 04:58:58;;;;;;;11.85;10.63;;;;;;;;;;4412396;32;318993;-82
2023/09/03 05:01:26;;;;;;;16.75;10.55;;;;;;;;;;4400830;32;319189;-85
2023/09/03 05:03:54;;;;;;;21.55;10.48;;;;;;;;;;4411392;32;318974;-83
2023/09/03 05:06:21;;;;;;;17.85;12.10;;;;;;;;;;4404044;32;318972;-90
2023/09/03 05:08:50;;;;;;;24.02;14.13;;;;;;;;;;4414103;32;318954;-83
2023/09/03 05:11:20;;;;;;;23.30;15.60;;;;;;;;;;4400814;32;318899;-85
2023/09/03 05:13:47;;;;;;;25.25;15.40;;;;;;;;;;4412553;32;319008;-82
2023/09/03 05:16:15;;;;;;;18.37;14.13;;;;;;;;;;4402313;32;318803;-84
2023/09/03 05:18:42;;;;;;;18.70;12.68;;;;;;;;;;4411442;32;318917;-92
2023/09/03 05:21:10;;;;;;;19.98;12.23;;;;;;;;;;4403863;32;318802;-92
2023/09/03 05:23:37;;;;;;;18.12;12.25;;;;;;;;;;4406702;32;318795;-82
2023/09/03 05:26:06;;;;;;;21.65;13.32;;;;;;;;;;4401575;32;331852;-85
2023/09/03 05:28:34;;;;;;;14.70;11.20;;;;;;;;;;4411701;32;318655;-84
2023/09/03 05:31:02;;;;;;;26.20;12.37;;;;;;;;;;4412089;32;352128;-80
2023/09/03 05:33:29;;;;;;;25.15;12.37;;;;;;;;;;4394489;32;417875;-84
2023/09/03 05:35:57;;;;;;;17.08;11.85;;;;;;;;;;4412859;32;318699;-83
2023/09/03 05:38:24;;;;;;;17.08;12.20;;;;;;;;;;4400648;32;318681;-81
2023/09/03 05:40:52;;;;;;;18.48;11.23;;;;;;;;;;4413080;32;318897;-79
2023/09/03 05:43:22;;;;;;;12.73;11.20;;;;;;;;;;4402491;32;319092;-81
2023/09/03 05:45:51;;;;;;;18.85;10.55;;;;;;;;;;4409324;32;318603;-83
2023/09/03 05:48:19;;;;;;;11.85;9.05;;;;;;;;;;4403426;32;318890;-82
2023/09/03 05:50:47;;;;;;;16.05;9.40;;;;;;;;;;4411751;32;317610;-82
2023/09/03 05:53:15;;;;;;;11.73;10.20;;;;;;;;;;4400127;32;317656;-82
2023/09/03 05:55:42;;;;;;;10.35;8.88;;;;;;;;;;4411000;32;318826;-82
2023/09/03 05:58:10;;;;;;;13.95;10.23;;;;;;;;;;4401952;32;331677;-82
2023/09/03 06:00:42;;;;;;;20.85;9.80;;;;;;;;;;4414111;32;318615;-82
2023/09/03 06:03:10;;;;;;;14.10;9.40;;;;;;;;;;4403671;32;317720;-82
2023/09/03 06:05:38;;;;;;;18.55;10.00;;;;;;;;;;4409853;32;317508;-85
2023/09/03 06:08:06;;;;;;;11.00;9.85;;;;;;;;;;4403000;32;319081;-91
2023/09/03 06:10:33;;;;;;;10.43;9.38;;;;;;;;;;4412158;32;318086;-82
2023/09/03 06:13:01;;;;;;;12.90;10.10;;;;;;;;;;4411942;32;317652;-83
2023/09/03 06:15:28;;;;;;;14.50;10.10;;;;;;;;;;4397826;32;318834;-83
2023/09/03 06:17:57;;;;;;;11.00;8.85;;;;;;;;;;4413549;32;318710;-83
2023/09/03 06:20:24;;;;;;;19.37;10.45;;;;;;;;;;4401288;32;317849;-83
2023/09/03 06:22:51;;;;;;;11.82;9.95;;;;;;;;;;4415589;32;318819;-88
2023/09/03 06:25:19;;;;;;;13.27;10.00;;;;;;;;;;4404719;32;317623;-81
2023/09/03 06:27:47;;;;;;;13.23;9.43;;;;;;;;;;4412864;32;318833;-89
2023/09/03 06:30:14;;;;;;;14.48;10.13;;;;;;;;;;4405533;32;338194;-87
2023/09/03 06:32:42;;;;;;;10.73;9.02;;;;;;;;;;4413351;32;318855;-83
2023/09/03 06:35:11;;;;;;;10.65;9.55;;;;;;;;;;4402156;32;318033;-82
2023/09/03 06:37:39;;;;;;;10.32;9.32;;;;;;;;;;4408680;32;317830;-87
2023/09/03 06:40:08;;;;;;;9.13;8.18;;;;;;;;;;4394908;32;350279;-82
2023/09/03 06:42:36;;;;;;;10.75;9.10;;;;;;;;;;4414343;32;316896;-84
2023/09/03 06:45:07;;;;;;;15.18;8.80;;;;;;;;;;4412336;32;317985;-88
2023/09/03 06:47:34;;;;;;;32.38;8.77;;;;;;;;;;4392191;32;416838;-83
2023/09/03 06:50:02;;;;;;;10.77;9.30;;;;;;;;;;4414681;32;317813;-82
2023/09/03 06:52:31;;;;;;;12.80;8.68;;;;;;;;;;4401391;32;420077;-82
2023/09/03 06:54:58;;;;;;;11.10;8.98;;;;;;;;;;4413749;32;317686;-82
2023/09/03 06:57:26;;;;;;;18.02;9.95;;;;;;;;;;4400891;32;317807;-85
2023/09/03 06:59:53;;;;;;;11.25;9.75;;;;;;;;;;4415841;32;317916;-88
2023/09/03 07:02:20;;;;;;;11.15;9.32;;;;;;;;;;4402019;32;317842;-82
2023/09/03 07:04:48;;;;;;;9.50;8.52;;;;;;;;;;4413729;32;317884;-82
2023/09/03 07:07:17;;;;;;;12.75;8.75;;;;;;;;;;4402951;32;317040;-83
2023/09/03 07:09:46;;;;;;;14.18;9.57;;;;;;;;;;4414775;32;317736;-85
2023/09/03 07:12:14;;;;;;;12.48;9.00;;;;;;;;;;4405544;32;318709;-91
2023/09/03 07:14:41;;;;;;;11.23;9.18;;;;;;;;;;4414231;32;317983;-81
2023/09/03 07:17:08;;;;;;;11.07;9.43;;;;;;;;;;4403244;32;318115;-82
2023/09/03 07:19:36;;;;;;;12.63;9.02;;;;;;;;;;4410320;32;317959;-83
2023/09/03 07:22:03;;;;;;;13.15;9.30;;;;;;;;;;4414638;32;317785;-83
2023/09/03 07:24:31;;;;;;;10.57;8.73;;;;;;;;;;4400464;32;416865;-82
2023/09/03 07:27:00;;;;;;;9.40;8.50;;;;;;;;;;4414392;32;317989;-82
2023/09/03 07:29:27;;;;;;;9.35;8.27;;;;;;;;;;4399937;32;320876;-85
2023/09/03 07:31:55;;;;;;;10.23;8.85;;;;;;;;;;4415233;32;316873;-84
2023/09/03 07:34:22;;;;;;;10.32;9.20;;;;;;;;;;4404856;32;317757;-83
2023/09/03 07:36:49;;;;;;;11.02;9.27;;;;;;;;;;4415857;32;317896;-84
2023/09/03 07:39:17;;;;;;;14.93;10.00;;;;;;;;;;4403470;32;317815;-86
2023/09/03 07:41:46;;;;;;;11.55;9.88;;;;;;;;;;4410740;32;318721;-84
2023/09/03 07:44:15;;;;;;;9.40;7.93;;;;;;;;;;4384148;32;317818;-82
2023/09/03 07:46:42;;;;;;;13.73;8.23;;;;;;;;;;4411527;32;317000;-85
2023/09/03 07:49:10;;;;;;;14.87;8.02;;;;;;;;;;4404429;32;317680;-85
2023/09/03 07:51:37;;;;;;;10.68;8.88;;;;;;;;;;4405767;32;317876;-85
2023/09/03 07:54:05;;;;;;;10.88;8.70;;;;;;;;;;4404613;32;317628;-85
2023/09/03 07:56:32;;;;;;;9.65;8.73;;;;;;;;;;4412107;32;317902;-83
2023/09/03 07:59:01;;;;;;;16.52;8.15;;;;;;;;;;4415667;32;317007;-83
2023/09/03 08:01:30;;;;;;;11.55;9.15;;;;;;;;;;4402742;32;317790;-82
2023/09/03 08:03:56;;;;;;;11.23;8.65;;;;;;;;;;4414157;32;317761;-82
2023/09/03 08:06:24;;;;;;;11.30;8.52;;;;;;;;;;4403802;32;317693;-81
2023/09/03 08:08:54;;;;;;;10.10;8.90;;;;;;;;;;4413898;32;317814;-82
2023/09/03 08:11:21;;;;;;;15.30;8.70;;;;;;;;;;4397330;32;340712;-84
2023/09/03 08:13:53;;;;;;;10.25;8.70;;;;;;;;;;4414030;32;318002;-83
2023/09/03 08:16:20;;;;;;;13.23;8.50;;;;;;;;;;4405148;32;317673;-85
2023/09/03 08:18:49;;;;;;;10.45;7.93;;;;;;;;;;4412942;32;317909;-84
2023/09/03 08:21:17;;;;;;;10.47;9.33;;;;;;;;;;4402116;32;329794;-83
2023/09/03 08:23:44;;;;;;;10.32;7.65;;;;;;;;;;4410477;32;359501;-83
2023/09/03 08:26:12;;;;;;;13.45;8.38;;;;;;;;;;4404939;32;317919;-83
2023/09/03 08:28:39;;;;;;;6.85;6.12;;;;;;;;;;4413172;32;317909;-83
2023/09/03 08:31:07;;;;;;;13.55;7.57;;;;;;;;;;4403425;32;316869;-83
2023/09/03 08:33:34;;;;;;;26.90;8.20;;;;;;;;;;4411544;32;318118;-82
2023/09/03 08:36:03;;;;;;;9.02;7.30;;;;;;;;;;4412036;32;317897;-83
2023/09/03 08:38:30;;;;;;;8.13;6.25;;;;;;;;;;4401147;32;415910;-82
2023/09/03 08:40:58;;;;;;;10.77;7.55;;;;;;;;;;4414263;32;316575;-82
2023/09/03 08:43:27;;;;;;;14.00;6.95;;;;;;;;;;4400400;32;317791;-83
2023/09/03 08:45:57;;;;;;;12.77;6.75;;;;;;;;;;4414087;32;317685;-83
2023/09/03 08:48:25;;;;;;;9.20;7.25;;;;;;;;;;4403715;32;317993;-83
2023/09/03 08:50:53;;;;;;;8.45;6.28;;;;;;;;;;4412906;32;316724;-82
2023/09/03 08:53:24;;;;;;;9.17;6.50;;;;;;;;;;4399507;32;316769;-84
2023/09/03 08:55:52;;;;;;;7.68;6.87;;;;;;;;;;4413751;32;316750;-82
2023/09/03 08:58:19;;;;;;;16.13;6.93;;;;;;;;;;4401129;32;332329;-83
2023/09/03 09:00:47;;;;;;;11.85;6.25;;;;;;;;;;4413065;32;317683;-83
2023/09/03 09:03:17;;;;;;;7.57;6.45;;;;;;;;;;4400569;32;317760;-83
2023/09/03 09:05:47;;;;;;;6.95;6.25;;;;;;;;;;4413218;32;316608;-83
2023/09/03 09:08:15;;;;;;;8.10;6.50;;;;;;;;;;4401489;32;316804;-81
2023/09/03 09:10:48;;;;;;;9.82;6.93;;;;;;;;;;4412402;32;317061;-80
2023/09/03 09:13:23;;;;;;;18.42;6.93;;;;;;;;;;4402449;32;357215;-81
2023/09/03 09:15:50;;;;;;;6.85;5.95;;;;;;;;;;4413420;32;317754;-82
2023/09/03 09:18:17;;;;;;;13.57;7.35;;;;;;;;;;4403651;32;317041;-84
2023/09/03 09:20:46;;;;;;;8.38;6.15;;;;;;;;;;4414446;32;317738;-82
2023/09/03 09:23:23;;;;;;;8.27;7.20;;;;;;;;;;4403472;32;316644;-82
2023/09/03 09:25:54;;;;;;;14.13;7.35;;;;;;;;;;4411705;32;316785;-81
2023/09/03 09:28:22;;;;;;;8.30;6.87;;;;;;;;;;4403773;32;318012;-84
2023/09/03 09:30:56;;;;;;;7.47;6.70;;;;;;;;;;4411910;32;316837;-82
2023/09/03 09:33:24;;;;;;;9.57;6.70;;;;;;;;;;4399869;32;317023;-86
2023/09/03 09:35:53;;;;;;;6.80;5.93;;;;;;;;;;4414222;32;316680;-85
2023/09/03 09:38:21;;;;;;;8.00;6.75;;;;;;;;;;4388735;32;316989;-85
2023/09/03 09:40:48;;;;;;;9.82;6.10;;;;;;;;;;4412185;32;316749;-82
2023/09/03 09:43:19;;;;;;;8.20;6.78;;;;;;;;;;4402427;32;316648;-83
2023/09/03 09:45:48;;;;;;;9.25;6.60;;;;;;;;;;4413153;32;316882;-83
2023/09/03 09:48:16;;;;;;;6.43;5.83;;;;;;;;;;4400843;32;355399;-85
2023/09/03 09:50:46;;;;;;;7.82;5.65;;;;;;;;;;4411986;32;316969;-83
2023/09/03 09:53:25;;;;;;;7.28;6.53;;;;;;;;;;4403237;32;316878;-88
2023/09/03 09:56:00;;;;;;;10.20;5.85;;;;;;;;;;4412982;32;317010;-82
2023/09/03 09:58:37;;;;;;;10.88;6.70;;;;;;;;;;4404553;32;318069;-80
2023/09/03 10:01:05;;;;;;;7.18;5.20;;;;;;;;;;4406027;32;318151;-82
2023/09/03 10:03:42;;;;;;;5.62;5.12;;;;;;;;;;4408441;32;316796;-86
2023/09/03 10:06:10;;;;;;;7.18;5.40;;;;;;;;;;4406572;32;317105;-91
2023/09/03 10:08:38;;;;;;;6.15;5.55;;;;;;;;;;4415557;32;316954;-81
2023/09/03 10:11:06;;;;;;;5.55;5.05;;;;;;;;;;4404153;32;316849;-82
2023/09/03 10:13:33;;;;;;;5.75;5.15;;;;;;;;;;4411494;32;316729;-81
2023/09/03 10:16:03;;;;;;;8.13;5.47;;;;;;;;;;4414651;32;315705;-81
2023/09/03 10:18:33;;;;;;;7.05;6.10;;;;;;;;;;4399020;32;419557;-82
2023/09/03 10:21:01;;;;;;;6.47;5.72;;;;;;;;;;4414572;32;316568;-81
2023/09/03 10:23:32;;;;;;;6.50;5.50;;;;;;;;;;4398432;32;316772;-82
2023/09/03 10:26:01;;;;;;;6.87;5.80;;;;;;;;;;4414330;32;316937;-84
2023/09/03 10:28:29;;;;;;;5.78;5.03;;;;;;;;;;4405851;32;316678;-84
2023/09/03 10:30:56;;;;;;;6.32;5.30;;;;;;;;;;4413513;32;316724;-84
2023/09/03 10:33:26;;;;;;;8.18;4.87;;;;;;;;;;4403599;32;316898;-85
2023/09/03 10:36:13;;;;;;;8.43;5.22;;;;;;;;;;4415278;32;316943;-85
2023/09/03 10:38:40;;;;;;;4.95;4.47;;;;;;;;;;4401125;32;415620;-84
2023/09/03 10:41:25;;;;;;;7.50;5.30;;;;;;;;;;4405837;32;316934;-84
2023/09/03 10:43:53;;;;;;;6.10;4.75;;;;;;;;;;4413314;32;316680;-78
2023/09/03 10:46:22;;;;;;;6.55;5.50;;;;;;;;;;4401085;32;316713;-84
2023/09/03 10:48:55;;;;;;;10.25;5.57;;;;;;;;;;4416037;32;316934;-88
2023/09/03 10:51:44;;;;;;;8.85;5.32;;;;;;;;;;4400422;32;317786;-83
2023/09/03 10:54:19;;;;;;;6.07;5.45;;;;;;;;;;4392687;32;316740;-80
2023/09/03 10:57:18;;;;;;;8.27;5.18;;;;;;;;;;4416533;32;315724;-79
2023/09/03 11:00:08;;;;;;;5.53;4.97;;;;;;;;;;4399705;32;417112;-80
2023/09/03 11:02:36;;;;;;;7.20;5.45;;;;;;;;;;4402747;32;417020;-80
2023/09/03 11:05:17;;;;;;;5.40;4.82;;;;;;;;;;4412425;32;316777;-80
2023/09/03 11:07:47;;;;;;;9.48;5.15;;;;;;;;;;4398440;32;387004;-82
2023/09/03 11:10:42;;;;;;;9.48;5.55;;;;;;;;;;4405162;32;316675;-82
2023/09/03 11:13:13;;;;;;;5.95;4.95;;;;;;;;;;4402083;32;316836;-81
2023/09/03 11:15:49;;;;;;;6.12;5.35;;;;;;;;;;4411945;32;316656;-80
2023/09/03 11:18:21;;;;;;;6.15;5.55;;;;;;;;;;4404184;32;328068;-81
2023/09/03 11:20:51;;;;;;;6.10;5.30;;;;;;;;;;4415461;32;316811;-81
2023/09/03 11:23:20;;;;;;;10.05;5.55;;;;;;;;;;4399884;32;316837;-82
2023/09/03 11:25:47;;;;;;;7.12;5.20;;;;;;;;;;4414759;32;317913;-80
2023/09/03 11:28:15;;;;;;;6.40;5.40;;;;;;;;;;4403788;32;316945;-80
2023/09/03 11:30:44;;;;;;;5.35;4.85;;;;;;;;;;4413237;32;316768;-84
2023/09/03 11:33:25;;;;;;;9.88;4.85;;;;;;;;;;4403331;32;316812;-79
2023/09/03 11:35:55;;;;;;;6.35;4.78;;;;;;;;;;4410599;32;316737;-79
2023/09/03 11:38:25;;;;;;;9.03;4.43;;;;;;;;;;4400859;32;317018;-83
2023/09/03 11:40:57;;;;;;;6.72;4.65;;;;;;;;;;4393193;32;317372;-79
2023/09/03 11:43:30;;;;;;;7.28;4.82;;;;;;;;;;4400805;32;316908;-80
2023/09/03 11:45:58;;;;;;;6.90;4.80;;;;;;;;;;4413991;32;316871;-82
2023/09/03 11:48:25;;;;;;;8.55;4.60;;;;;;;;;;4401609;32;316873;-81
2023/09/03 11:50:55;;;;;;;6.53;3.97;;;;;;;;;;4414547;32;316918;-80
2023/09/03 11:53:24;;;;;;;6.37;5.00;;;;;;;;;;4400218;32;316938;-85
2023/09/03 11:55:54;;;;;;;7.90;3.87;;;;;;;;;;4412613;32;316666;-80
2023/09/03 11:58:25;;;;;;;8.88;4.30;;;;;;;;;;4403069;32;316918;-83
2023/09/03 12:00:53;;;;;;;6.03;4.47;;;;;;;;;;4415483;32;316712;-80
2023/09/03 12:03:21;;;;;;;5.10;4.60;;;;;;;;;;4398969;32;316902;-81
2023/09/03 12:05:49;;;;;;;5.22;4.15;;;;;;;;;;4413531;32;316948;-80
2023/09/03 12:08:19;;;;;;;4.50;4.05;;;;;;;;;;4402417;32;317032;-80
2023/09/03 12:10:49;;;;;;;5.80;4.28;;;;;;;;;;4412150;32;353681;-80
2023/09/03 12:13:30;;;;;;;6.07;3.25;;;;;;;;;;4403983;32;326250;-80
2023/09/03 12:16:04;;;;;;;4.53;4.12;;;;;;;;;;4414134;32;316982;-80
2023/09/03 12:18:32;;;;;;;7.43;4.93;;;;;;;;;;4399409;32;416197;-81
2023/09/03 12:20:59;;;;;;;6.55;4.70;;;;;;;;;;4414383;32;317023;-81
2023/09/03 12:23:28;;;;;;;6.87;4.30;;;;;;;;;;4401929;32;316680;-84
2023/09/03 12:25:56;;;;;;;3.95;3.53;;;;;;;;;;4413131;32;316811;-80
2023/09/03 12:28:38;;;;;;;4.90;4.37;;;;;;;;;;4401530;32;316923;-81
2023/09/03 12:31:06;;;;;;;5.97;4.22;;;;;;;;;;4401392;32;316730;-82
2023/09/03 12:33:51;;;;;;;4.28;3.87;;;;;;;;;;4405474;32;317623;-81
2023/09/03 12:36:20;;;;;;;7.05;4.10;;;;;;;;;;4401009;32;316993;-80
2023/09/03 12:38:53;;;;;;;5.15;4.25;;;;;;;;;;4414060;32;316939;-80
2023/09/03 12:41:22;;;;;;;5.35;4.68;;;;;;;;;;4402688;32;317059;-81
2023/09/03 12:43:49;;;;;;;4.75;4.32;;;;;;;;;;4407707;32;316741;-81
2023/09/03 12:46:17;;;;;;;4.80;3.67;;;;;;;;;;4402034;32;316793;-81
2023/09/03 12:48:45;;;;;;;6.05;3.92;;;;;;;;;;4414069;32;317547;-80
2023/09/03 12:51:13;;;;;;;6.60;4.20;;;;;;;;;;4402476;32;316823;-81
2023/09/03 12:53:41;;;;;;;5.87;4.45;;;;;;;;;;4408970;32;317047;-80
2023/09/03 12:56:10;;;;;;;7.93;3.97;;;;;;;;;;4402130;32;317101;-82
2023/09/03 12:58:38;;;;;;;7.62;4.75;;;;;;;;;;4411990;32;344593;-81
2023/09/03 13:01:05;;;;;;;6.68;4.50;;;;;;;;;;4403753;32;316952;-83
2023/09/03 13:03:33;;;;;;;4.82;3.92;;;;;;;;;;4409396;32;317179;-80
2023/09/03 13:06:00;;;;;;;4.30;3.90;;;;;;;;;;4412108;32;316621;-77
2023/09/03 13:08:29;;;;;;;4.22;3.60;;;;;;;;;;4384447;32;317047;-82
2023/09/03 13:10:56;;;;;;;3.70;3.35;;;;;;;;;;4397699;32;316941;-78
2023/09/03 13:13:26;;;;;;;7.50;3.95;;;;;;;;;;4384982;32;316866;-81
2023/09/03 13:15:54;;;;;;;3.97;3.60;;;;;;;;;;4398944;32;316911;-81
2023/09/03 13:18:21;;;;;;;4.57;3.70;;;;;;;;;;4387629;32;317052;-77
2023/09/03 13:20:49;;;;;;;4.03;3.53;;;;;;;;;;4398095;32;315709;-77
2023/09/03 13:23:19;;;;;;;4.32;3.92;;;;;;;;;;4386100;32;316708;-83
2023/09/03 13:25:47;;;;;;;4.18;3.83;;;;;;;;;;4398136;32;316704;-83
2023/09/03 13:28:14;;;;;;;3.95;3.55;;;;;;;;;;4387812;32;316645;-83
2023/09/03 13:30:43;;;;;;;3.83;3.22;;;;;;;;;;4388969;32;316882;-78
2023/09/03 13:33:10;;;;;;;10.07;3.78;;;;;;;;;;4387210;32;316875;-78
2023/09/03 13:35:43;;;;;;;3.85;3.40;;;;;;;;;;4394849;32;317836;-78
2023/09/03 13:38:10;;;;;;;4.85;3.65;;;;;;;;;;4387721;32;316885;-78
2023/09/03 13:40:39;;;;;;;8.40;3.80;;;;;;;;;;4397276;32;352697;-78
2023/09/03 13:43:07;;;;;;;4.75;3.70;;;;;;;;;;4386974;32;316715;-79
2023/09/03 13:45:35;;;;;;;5.95;3.53;;;;;;;;;;4396434;32;316864;-78
2023/09/03 13:48:04;;;;;;;6.15;3.80;;;;;;;;;;4397227;32;316788;-80
2023/09/03 13:50:31;;;;;;;52.28;7.07;;;;;;;;;;4385812;32;416230;-79
2023/09/03 13:53:00;;;;;;;4.80;4.15;;;;;;;;;;4397454;32;318073;-93
2023/09/03 13:55:28;;;;;;;6.25;4.07;;;;;;;;;;4383476;32;316598;-82
2023/09/03 13:57:56;;;;;;;6.20;3.58;;;;;;;;;;4397261;32;316685;-80
2023/09/03 14:00:24;;;;;;;8.55;3.90;;;;;;;;;;4388389;32;316679;-79
2023/09/03 14:02:51;;;;;;;9.80;3.95;;;;;;;;;;4396996;32;317340;-79
2023/09/03 14:05:23;;;;;;;47.47;5.33;;;;;;;;;;4383627;32;316919;-82
2023/09/03 14:07:50;;;;;;;15.68;4.35;;;;;;;;;;4397325;32;318004;-95
2023/09/03 14:10:18;;;;;;;8.02;3.87;;;;;;;;;;4397495;32;318026;-79
2023/09/03 14:12:45;;;;;;;8.13;3.92;;;;;;;;;;4412259;32;317099;-89
2023/09/03 14:15:13;;;;;;;5.37;3.70;;;;;;;;;;4401796;32;316895;-95
2023/09/03 14:17:41;;;;;;;5.22;3.85;;;;;;;;;;4406898;32;315929;-79
2023/09/03 14:20:09;;;;;;;7.75;3.80;;;;;;;;;;4402973;32;342870;-81
2023/09/03 14:22:41;;;;;;;6.53;3.90;;;;;;;;;;4412766;32;316742;-79
2023/09/03 14:25:09;;;;;;;25.05;4.37;;;;;;;;;;4401433;32;316800;-82
2023/09/03 14:27:36;;;;;;;7.60;4.20;;;;;;;;;;4410225;32;318206;-93
2023/09/03 14:30:04;;;;;;;9.68;4.53;;;;;;;;;;4413246;32;316740;-80
2023/09/03 14:32:31;;;;;;;7.50;3.92;;;;;;;;;;4400484;32;415695;-81
2023/09/03 14:34:58;;;;;;;4.28;3.75;;;;;;;;;;4413319;32;316785;-80